Kansas City, Missouri
Current Conditions -  °F | °C
As of 9:54 AM on Monday 24 Nov 2014 (Local Time) from KMKC Reporting Station
Overcast Overcast  
Wind Chill: 28°   Ceiling: 4000
Heat Index: 37°   Visibility: 10mi
Dew Point: 24°   Wind: 16mph
Humidity: 59%   Direction: 290°WNW
Pressure: 29.73"   Gusts: 21mph
Location:  39.1°N, 94.58°W
Report Text: KMKC 241554Z 29014G18KT 10SM BKN040 OVC085 03/M04 A2973 RMK AO2 SLP072 T00281044
Loading
Personal Weather Stations






























Interactive Weather Map New forecast layout! Learn more

10-Day Weather Forecast

Advertisements
Track Severe Weather on mobile